createdAt,value
2022-08-05T00:01:56.292Z,17.4
2022-08-05T00:06:54.422Z,17.4
2022-08-05T00:16:55.111Z,17.6
2022-08-05T00:21:55.487Z,17.3
2022-08-05T00:32:13.412Z,17.4
2022-08-05T00:37:10.691Z,17.4
2022-08-05T00:47:03.740Z,17.0
2022-08-05T00:51:57.586Z,16.8
2022-08-05T00:56:57.622Z,16.7
2022-08-05T01:01:57.790Z,16.6
2022-08-05T01:06:58.202Z,16.6
2022-08-05T01:12:01.922Z,16.4
2022-08-05T01:16:58.769Z,16.5
2022-08-05T01:21:58.803Z,16.5
2022-08-05T01:26:59.231Z,16.4
2022-08-05T01:31:59.375Z,16.4
2022-08-05T01:37:00.566Z,16.2
2022-08-05T01:41:59.945Z,16.3
2022-08-05T01:52:01.090Z,16.2
2022-08-05T01:58:29.946Z,16.1
2022-08-05T02:02:01.385Z,16.1
2022-08-05T02:07:03.485Z,15.9
2022-08-05T02:12:01.679Z,15.9
2022-08-05T02:22:02.356Z,15.7
2022-08-05T02:32:04.870Z,15.5
2022-08-05T02:37:04.329Z,15.5
2022-08-05T02:42:03.363Z,15.4
2022-08-05T02:47:05.715Z,15.4
2022-08-05T02:57:05.144Z,15.2
2022-08-05T03:02:04.497Z,15.4
2022-08-05T03:07:04.598Z,15.2
2022-08-05T03:12:04.938Z,15.1
2022-08-05T03:22:15.994Z,14.9
2022-08-05T03:27:06.763Z,15.2
2022-08-05T03:32:05.930Z,15.0
2022-08-05T03:37:06.181Z,15.0
2022-08-05T03:42:06.438Z,15.1
2022-08-05T03:47:06.682Z,14.8
2022-08-05T03:52:49.384Z,14.6
2022-08-05T03:57:16.328Z,14.4
2022-08-05T04:02:10.022Z,14.2
2022-08-05T04:07:07.669Z,14.3
2022-08-05T04:17:08.206Z,14.0
2022-08-05T04:22:12.051Z,13.9
2022-08-05T04:27:08.648Z,13.9
2022-08-05T04:32:08.831Z,13.9
2022-08-05T04:37:09.025Z,13.9
2022-08-05T04:47:10.502Z,13.8
2022-08-05T04:57:09.790Z,14.0
2022-08-05T05:02:36.103Z,14.2
2022-08-05T05:07:10.197Z,14.2
2022-08-05T05:17:10.614Z,14.1
2022-08-05T05:22:24.219Z,14.1
2022-08-05T05:27:10.911Z,14.3
2022-08-05T05:32:12.629Z,14.2
2022-08-05T05:37:11.303Z,14.5
2022-08-05T05:42:11.502Z,14.5
2022-08-05T05:47:21.679Z,14.7
2022-08-05T05:52:13.346Z,14.6
2022-08-05T05:57:13.776Z,14.7
2022-08-05T06:02:12.248Z,14.8
2022-08-05T06:07:12.434Z,14.9
2022-08-05T06:12:12.631Z,15.2
2022-08-05T06:17:31.972Z,15.6
2022-08-05T06:22:13.105Z,15.9
2022-08-05T06:28:09.174Z,16.6
2022-08-05T06:32:26.329Z,17.1
2022-08-05T06:37:13.991Z,18.5
2022-08-05T06:42:14.328Z,18.9
2022-08-05T06:48:11.971Z,19.1
2022-08-05T06:52:36.732Z,20.8
2022-08-05T06:58:02.699Z,22.2
2022-08-05T07:02:15.911Z,22.3
2022-08-05T07:07:16.515Z,22.1
2022-08-05T07:12:16.986Z,22.1
2022-08-05T07:22:18.004Z,22.2
2022-08-05T07:32:19.122Z,22.5
2022-08-05T07:42:31.794Z,22.0
2022-08-05T07:47:20.974Z,21.7
2022-08-05T07:52:21.248Z,21.9
2022-08-05T07:57:42.139Z,21.8
2022-08-05T08:02:22.312Z,21.2
2022-08-05T08:07:23.322Z,21.4
2022-08-05T08:12:37.024Z,20.9
2022-08-05T08:17:24.192Z,20.2
2022-08-05T08:22:24.408Z,20.1
2022-08-05T08:27:39.988Z,19.9
2022-08-05T08:32:28.041Z,19.9
2022-08-05T08:37:27.868Z,20.1
2022-08-05T08:42:34.597Z,20.2
2022-08-05T08:52:27.295Z,20.1
2022-08-05T08:57:42.069Z,20.3
2022-08-05T09:02:28.007Z,20.4
2022-08-05T09:07:39.460Z,20.6
2022-08-05T09:12:29.076Z,20.9
2022-08-05T09:17:40.526Z,20.9
2022-08-05T09:22:31.767Z,20.8
2022-08-05T09:28:05.388Z,21.6
2022-08-05T09:38:16.907Z,21.7
2022-08-05T09:42:32.389Z,21.6
2022-08-05T09:47:46.556Z,21.7
2022-08-05T09:52:33.629Z,22.8
2022-08-05T09:57:35.216Z,23.6
2022-08-05T10:02:34.308Z,23.8
2022-08-05T10:08:10.997Z,24.2
2022-08-05T10:12:35.579Z,23.9
2022-08-05T10:17:38.064Z,23.9
2022-08-05T10:22:38.088Z,23.4
2022-08-05T10:28:12.699Z,23.3
2022-08-05T10:32:53.424Z,23.8
2022-08-05T10:42:38.842Z,23.9
2022-08-05T10:47:39.568Z,23.2
2022-08-05T10:52:47.026Z,23.2
2022-08-05T10:57:40.605Z,24.1
2022-08-05T11:02:43.645Z,24.2
2022-08-05T11:12:42.437Z,24.1
2022-08-05T11:17:58.950Z,23.9
2022-08-05T11:22:43.630Z,24.1
2022-08-05T11:27:50.973Z,23.9
2022-08-05T11:32:44.808Z,23.9
2022-08-05T11:38:28.421Z,23.9
2022-08-05T11:42:46.029Z,23.8
2022-08-05T11:47:48.473Z,24.2
2022-08-05T11:52:49.525Z,24.1
2022-08-05T11:58:10.416Z,24.6
2022-08-05T12:02:48.518Z,24.8
2022-08-05T12:08:03.196Z,24.8
2022-08-05T12:18:02.792Z,23.7
2022-08-05T12:27:53.537Z,24.8
2022-08-05T12:32:52.413Z,24.8
2022-08-05T12:37:53.183Z,24.2
2022-08-05T12:42:55.536Z,24.7
2022-08-05T12:48:17.439Z,25.2
2022-08-05T12:52:54.762Z,25.2
2022-08-05T12:58:52.684Z,25.4
2022-08-05T13:02:56.426Z,25.7
2022-08-05T13:07:59.089Z,25.6
2022-08-05T13:12:58.589Z,24.6
2022-08-05T13:17:59.297Z,24.6
2022-08-05T13:22:58.674Z,24.7
2022-08-05T13:27:59.267Z,24.5
2022-08-05T13:33:01.438Z,25.4
2022-08-05T13:38:04.930Z,25.9
2022-08-05T13:53:02.544Z,26.9
2022-08-05T13:58:03.234Z,26.5
2022-08-05T14:08:19.816Z,26.4
2022-08-05T14:13:05.284Z,26.7
2022-08-05T14:18:05.974Z,26.9
2022-08-05T14:23:06.703Z,26.6
2022-08-05T14:28:07.377Z,26.6
2022-08-05T14:33:08.011Z,26.7
2022-08-05T14:38:33.001Z,27.1
2022-08-05T14:43:11.412Z,27.2
2022-08-05T14:48:10.130Z,27.4
2022-08-05T14:53:10.858Z,28.1
2022-08-05T14:58:13.788Z,27.3
2022-08-05T15:03:12.436Z,27.1
2022-08-05T15:13:13.857Z,27.2
2022-08-05T15:18:17.173Z,27.1
2022-08-05T15:23:15.150Z,26.8
2022-08-05T15:28:16.225Z,26.2
2022-08-05T15:38:34.423Z,25.7
2022-08-05T15:43:20.273Z,25.8
2022-08-05T15:58:19.965Z,26.4
2022-08-05T16:03:20.696Z,26.6
2022-08-05T16:08:21.350Z,26.6
2022-08-05T16:13:23.904Z,26.6
2022-08-05T16:18:28.993Z,27.0
2022-08-05T16:23:25.487Z,27.3
2022-08-05T16:28:24.269Z,26.8
2022-08-05T16:33:24.799Z,25.9
2022-08-05T16:38:28.153Z,25.4
2022-08-05T16:43:28.136Z,26.7
2022-08-05T16:48:33.538Z,26.2
2022-08-05T16:53:32.262Z,26.5
2022-08-05T16:58:28.452Z,27.0
2022-08-05T17:03:29.301Z,30.9
2022-08-05T17:08:36.148Z,31.6
2022-08-05T17:13:37.420Z,30.2
2022-08-05T17:18:32.231Z,30.4
2022-08-05T17:22:41.620Z,32.9
2022-08-05T17:24:05.054Z,33.8
2022-08-05T17:28:34.258Z,35.1
2022-08-05T17:33:38.934Z,31.2
2022-08-05T17:48:38.220Z,28.4
2022-08-05T17:53:40.518Z,26.7
2022-08-05T17:58:39.903Z,26.1
2022-08-05T18:03:59.621Z,26.0
2022-08-05T18:08:44.733Z,26.5
2022-08-05T18:13:44.069Z,25.5
2022-08-05T18:18:48.608Z,24.7
2022-08-05T18:23:46.982Z,24.0
2022-08-05T18:28:44.116Z,23.9
2022-08-05T18:33:47.167Z,23.4
2022-08-05T18:38:45.233Z,22.9
2022-08-05T18:43:49.006Z,22.8
2022-08-05T18:48:46.281Z,22.5
2022-08-05T18:53:50.325Z,22.4
2022-08-05T18:58:47.291Z,22.1
2022-08-05T19:03:53.506Z,21.8
2022-08-05T19:08:48.333Z,21.5
2022-08-05T19:18:49.093Z,21.4
2022-08-05T19:24:07.431Z,21.1
2022-08-05T19:28:49.987Z,20.9
2022-08-05T19:38:50.832Z,20.5
2022-08-05T19:44:05.403Z,20.5
2022-08-05T19:48:51.669Z,20.2
2022-08-05T19:54:03.730Z,20.2
2022-08-05T19:58:54.386Z,20.1
2022-08-05T20:03:52.931Z,19.9
2022-08-05T20:13:58.744Z,19.6
2022-08-05T20:18:55.547Z,19.5
2022-08-05T20:23:54.378Z,19.4
2022-08-05T20:28:55.917Z,19.3
2022-08-05T20:33:55.177Z,19.1
2022-08-05T20:38:58.003Z,19.0
2022-08-05T20:43:59.154Z,18.9
2022-08-05T20:48:56.041Z,18.8
2022-08-05T20:54:01.185Z,18.7
2022-08-05T20:58:56.615Z,18.8
2022-08-05T21:03:58.983Z,18.6
2022-08-05T21:08:57.269Z,18.4
2022-08-05T21:13:57.646Z,18.5
2022-08-05T21:18:59.932Z,18.2
2022-08-05T21:24:00.558Z,18.4
2022-08-05T21:29:03.812Z,18.3
2022-08-05T21:33:58.897Z,18.2
2022-08-05T21:38:59.235Z,18.2
2022-08-05T21:44:03.717Z,18.1
2022-08-05T21:49:00.102Z,17.8
2022-08-05T21:54:03.876Z,17.7
2022-08-05T21:59:00.349Z,17.6
2022-08-05T22:04:00.606Z,17.5
2022-08-05T22:14:18.468Z,17.4
2022-08-05T22:19:01.838Z,17.3
2022-08-05T22:24:08.983Z,17.2
2022-08-05T22:29:02.061Z,17.1
2022-08-05T22:34:02.468Z,17.0
2022-08-05T22:44:02.907Z,16.8
2022-08-05T22:49:03.178Z,16.6
2022-08-05T22:54:03.397Z,16.5
2022-08-05T22:59:04.047Z,16.4
2022-08-05T23:04:04.057Z,16.4
2022-08-05T23:14:04.364Z,16.3
2022-08-05T23:19:04.614Z,16.2
2022-08-05T23:34:06.680Z,16.1
2022-08-05T23:39:05.627Z,16.1
2022-08-05T23:44:08.526Z,16.1
2022-08-05T23:49:15.903Z,15.9
2022-08-05T23:54:06.304Z,15.7
2022-08-05T23:59:06.549Z,15.7
